Time;durP1;ratioP1;P1;durP2;ratioP2;P2;SDS_P1;SDS_P2;PMS_P1;PMS_P2;Temp;Humidity;BMP_temperature;BMP_pressure;BME280_temperature;BME280_humidity;BME280_pressure;Samples;Min_cycle;Max_cycle;Signal;HPM_P1;HPM_P2
2022/10/04 00:01:40;;;;;;;9.23;2.72;;;;;;;;;;4988045;28;20036;-66
2022/10/04 00:04:26;;;;;;;5.57;2.60;;;;;;;;;;4988287;28;20030;-67
2022/10/04 00:07:14;;;;;;;7.53;3.10;;;;;;;;;;4989131;28;20546;-66
2022/10/04 00:09:42;;;;;;;4.53;2.73;;;;;;;;;;4986860;28;20400;-68
2022/10/04 00:12:16;;;;;;;3.78;2.55;;;;;;;;;;5005609;28;20037;-67
2022/10/04 00:14:41;;;;;;;5.90;2.75;;;;;;;;;;4990792;28;20396;-67
2022/10/04 00:17:11;;;;;;;5.90;2.78;;;;;;;;;;4989463;28;20114;-66
2022/10/04 00:19:39;;;;;;;4.40;2.63;;;;;;;;;;4988932;28;20109;-68
2022/10/04 00:22:07;;;;;;;5.55;2.40;;;;;;;;;;4990162;28;20030;-68
2022/10/04 00:24:33;;;;;;;6.55;2.65;;;;;;;;;;4987096;28;20033;-66
2022/10/04 00:27:11;;;;;;;4.53;2.70;;;;;;;;;;4991443;28;20031;-69
2022/10/04 00:29:38;;;;;;;4.35;2.60;;;;;;;;;;4985976;28;20038;-66
2022/10/04 00:32:06;;;;;;;5.47;2.90;;;;;;;;;;4986214;28;20439;-68
2022/10/04 00:34:31;;;;;;;8.93;2.70;;;;;;;;;;4985961;28;20038;-66
2022/10/04 00:36:57;;;;;;;6.15;2.97;;;;;;;;;;4986304;28;20038;-68
2022/10/04 00:39:25;;;;;;;5.25;2.70;;;;;;;;;;4989418;28;20121;-68
2022/10/04 00:42:08;;;;;;;7.70;3.08;;;;;;;;;;4994744;28;20538;-68
2022/10/04 00:44:47;;;;;;;5.07;2.97;;;;;;;;;;4983193;28;20474;-69
2022/10/04 00:47:32;;;;;;;6.25;2.83;;;;;;;;;;4987125;28;20484;-66
2022/10/04 00:50:04;;;;;;;3.65;2.70;;;;;;;;;;4987746;28;20773;-68
2022/10/04 00:52:33;;;;;;;5.05;2.70;;;;;;;;;;4988358;28;20109;-66
2022/10/04 00:55:00;;;;;;;6.88;2.80;;;;;;;;;;5002251;28;20053;-66
2022/10/04 00:57:31;;;;;;;4.85;3.05;;;;;;;;;;4989493;28;20034;-67
2022/10/04 01:00:02;;;;;;;6.20;2.97;;;;;;;;;;4988820;28;20036;-69
2022/10/04 01:02:30;;;;;;;6.07;2.95;;;;;;;;;;4990300;28;20109;-68
2022/10/04 01:04:59;;;;;;;6.82;2.80;;;;;;;;;;4988973;28;20038;-68
2022/10/04 01:07:33;;;;;;;4.27;3.00;;;;;;;;;;4988730;28;20535;-67
2022/10/04 01:10:00;;;;;;;5.00;2.90;;;;;;;;;;4987657;28;20392;-68
2022/10/04 01:12:32;;;;;;;5.10;3.00;;;;;;;;;;4990414;28;20431;-68
2022/10/04 01:15:21;;;;;;;7.00;3.10;;;;;;;;;;4990195;28;20034;-68
2022/10/04 01:18:07;;;;;;;5.45;2.88;;;;;;;;;;4988123;28;20042;-68
2022/10/04 01:20:58;;;;;;;7.32;2.80;;;;;;;;;;4983987;28;20031;-66
2022/10/04 01:23:30;;;;;;;4.55;2.75;;;;;;;;;;4986390;28;20041;-68
2022/10/04 01:25:55;;;;;;;6.22;2.80;;;;;;;;;;4986941;28;20392;-69
2022/10/04 01:28:20;;;;;;;5.77;3.20;;;;;;;;;;4988604;28;20038;-68
2022/10/04 01:30:45;;;;;;;9.93;2.97;;;;;;;;;;4989011;28;20488;-68
2022/10/04 01:33:11;;;;;;;7.47;2.93;;;;;;;;;;4993367;28;20022;-68
2022/10/04 01:35:36;;;;;;;6.32;3.40;;;;;;;;;;4992257;28;20325;-68
2022/10/04 01:38:05;;;;;;;7.22;3.40;;;;;;;;;;4991917;28;20429;-69
2022/10/04 01:40:31;;;;;;;8.10;3.00;;;;;;;;;;4991394;28;20332;-68
2022/10/04 01:42:59;;;;;;;9.68;2.97;;;;;;;;;;4990048;28;20030;-68
2022/10/04 01:45:24;;;;;;;3.67;2.90;;;;;;;;;;4991979;28;20026;-68
2022/10/04 01:47:49;;;;;;;5.07;2.93;;;;;;;;;;4991019;28;20049;-69
2022/10/04 01:50:28;;;;;;;6.63;3.00;;;;;;;;;;4992175;28;20022;-68
2022/10/04 01:52:57;;;;;;;7.18;3.22;;;;;;;;;;4991869;28;20530;-69
2022/10/04 01:55:28;;;;;;;5.63;3.43;;;;;;;;;;4993291;28;20042;-68
2022/10/04 01:57:56;;;;;;;7.10;3.47;;;;;;;;;;4992415;28;20125;-68
2022/10/04 02:00:23;;;;;;;7.87;4.03;;;;;;;;;;4990794;28;20041;-68
2022/10/04 02:02:54;;;;;;;8.88;4.40;;;;;;;;;;4991144;28;20275;-68
2022/10/04 02:05:39;;;;;;;7.68;5.10;;;;;;;;;;5005847;28;20096;-68
2022/10/04 02:08:07;;;;;;;8.13;4.28;;;;;;;;;;4990298;28;20057;-68
2022/10/04 02:10:35;;;;;;;7.68;4.40;;;;;;;;;;4988145;28;20030;-67
2022/10/04 02:13:03;;;;;;;7.70;3.90;;;;;;;8.46;nan;100891.75;5007120;28;20036;-68
2022/10/04 02:15:28;;;;;;;6.25;3.65;;;;;;;;;;4991631;28;20456;-67
2022/10/04 02:17:56;;;;;;;10.10;3.17;;;;;;;8.46;nan;100878.63;4990162;28;20030;-67
2022/10/04 02:20:22;;;;;;;6.82;3.42;;;;;;;;;;4992895;28;20036;-69
2022/10/04 02:22:58;;;;;;;4.93;3.08;;;;;;;;;;4991752;28;20029;-68
2022/10/04 02:25:25;;;;;;;5.95;3.10;;;;;;;;;;4993164;28;20023;-68
2022/10/04 02:27:53;;;;;;;6.32;3.25;;;;;;;;;;4992870;28;20064;-68
2022/10/04 02:30:19;;;;;;;8.20;3.53;;;;;;;;;;5007049;28;20084;-68
2022/10/04 02:32:56;;;;;;;6.72;3.78;;;;;;;;;;4991225;28;20022;-68
2022/10/04 02:35:22;;;;;;;6.10;3.17;;;;;;;;;;4990067;28;20033;-67
2022/10/04 02:37:51;;;;;;;6.90;3.63;;;;;;;;;;4990935;28;20065;-69
2022/10/04 02:40:18;;;;;;;8.10;4.20;;;;;;;;;;4990848;28;20065;-69
2022/10/04 02:42:49;;;;;;;147.50;35.30;;;;;;;;;;4992168;28;20494;-69
2022/10/04 02:45:18;;;;;;;11.63;6.85;;;;;;;;;;4990891;28;20427;-70
2022/10/04 02:47:47;;;;;;;6.97;3.97;;;;;;;;;;5005729;28;20491;-70
2022/10/04 02:50:36;;;;;;;6.20;3.58;;;;;;;;;;4987614;28;20025;-69
2022/10/04 02:53:27;;;;;;;7.43;3.30;;;;;;;;;;4978337;28;20144;-69
2022/10/04 02:55:54;;;;;;;4.43;3.05;;;;;;;;;;4967839;28;20034;-69
2022/10/04 02:58:21;;;;;;;10.25;3.25;;;;;;;;;;5004927;28;20084;-69
2022/10/04 03:00:50;;;;;;;9.05;4.68;;;;;;;;;;4990428;28;20033;-68
2022/10/04 03:03:15;;;;;;;9.55;5.40;;;;;;;;;;4988833;28;20073;-69
2022/10/04 03:05:42;;;;;;;15.07;7.63;;;;;;;;;;4989078;28;20476;-69
2022/10/04 03:08:07;;;;;;;12.73;7.07;;;;;;;;;;4990227;28;20338;-69
2022/10/04 03:10:34;;;;;;;19.03;7.70;;;;;;;;;;4985505;28;20406;-70
2022/10/04 03:13:00;;;;;;;14.93;6.75;;;;;;;;;;4991927;28;20283;-69
2022/10/04 03:15:25;;;;;;;12.18;6.03;;;;;;;;;;4988247;28;20038;-69
2022/10/04 03:17:50;;;;;;;10.38;5.53;;;;;;;;;;4990667;28;20022;-69
2022/10/04 03:20:20;;;;;;;11.77;6.00;;;;;;;;;;4990767;28;20030;-69
2022/10/04 03:22:45;;;;;;;;;;;;;;;;;;4990663;28;20633;-69
2022/10/04 03:25:14;;;;;;;10.13;5.47;;;;;;;;;;4989500;28;19914;-68
2022/10/04 03:27:41;;;;;;;7.10;4.28;;;;;;;;;;4988846;28;20531;-67
2022/10/04 03:30:11;;;;;;;18.23;6.90;;;;;;;;;;4990978;28;20030;-68
2022/10/04 03:32:38;;;;;;;21.23;8.02;;;;;;;;;;4988053;28;20104;-69
2022/10/04 03:35:06;;;;;;;12.98;5.20;;;;;;;;;;4987930;28;20022;-68
2022/10/04 03:37:34;;;;;;;10.70;4.55;;;;;;;;;;4986227;28;20760;-68
2022/10/04 03:40:00;;;;;;;31.75;11.70;;;;;;;;;;4989164;28;20830;-66
2022/10/04 03:42:30;;;;;;;19.38;8.98;;;;;;;;;;4990445;28;20030;-69
2022/10/04 03:44:59;;;;;;;20.05;9.65;;;;;;;;;;4989878;28;20045;-68
2022/10/04 03:47:25;;;;;;;;;;;;;;;;;;4987558;28;20034;-68
2022/10/04 03:49:51;;;;;;;13.07;5.87;;;;;;;;;;4999997;28;19918;-69
2022/10/04 03:52:23;;;;;;;10.52;5.88;;;;;;;;;;4989336;28;20026;-67
2022/10/04 03:54:50;;;;;;;8.70;4.40;;;;;;;;;;4990432;28;20046;-69
2022/10/04 03:57:15;;;;;;;13.85;4.65;;;;;;;7.96;nan;100922.63;4987137;28;20022;-67
2022/10/04 03:59:42;;;;;;;9.57;4.90;;;;;;;;;;4990770;28;20433;-68
2022/10/04 04:02:16;;;;;;;8.07;4.85;;;;;;;;;;4992015;28;20369;-67
2022/10/04 04:04:41;;;;;;;9.32;5.40;;;;;;;;;;4985435;28;20176;-69
2022/10/04 04:07:27;;;;;;;16.07;6.50;;;;;;;;;;4990330;28;20113;-68
2022/10/04 04:09:53;;;;;;;13.30;7.57;;;;;;;;;;5000491;28;20288;-69
2022/10/04 04:12:18;;;;;;;11.25;5.80;;;;;;;;;;4987138;28;20057;-68
2022/10/04 04:14:47;;;;;;;10.70;5.20;;;;;;;;;;4988793;28;20062;-68
2022/10/04 04:17:41;;;;;;;12.27;6.90;;;;;;;;;;4991040;28;20026;-69
2022/10/04 04:20:27;;;;;;;55.05;27.17;;;;;;;;;;4981630;28;20050;-69
2022/10/04 04:22:59;;;;;;;39.38;22.35;;;;;;;;;;4989122;28;20041;-69
2022/10/04 04:25:25;;;;;;;31.48;19.88;;;;;;;;;;4985683;28;20040;-69
2022/10/04 04:27:51;;;;;;;19.52;10.93;;;;;;;;;;4989905;28;20100;-69
2022/10/04 04:30:17;;;;;;;19.80;11.40;;;;;;;;;;4986976;28;20101;-69
2022/10/04 04:32:49;;;;;;;20.83;10.27;;;;;;;;;;4988869;28;20538;-69
2022/10/04 04:35:21;;;;;;;17.92;9.10;;;;;;;;;;4985814;28;20022;-69
2022/10/04 04:38:01;;;;;;;14.75;7.57;;;;;;;;;;4985680;28;20038;-68
2022/10/04 04:40:26;;;;;;;13.68;6.97;;;;;;;;;;4988959;28;20030;-68
2022/10/04 04:42:51;;;;;;;13.13;6.43;;;;;;;;;;4990725;28;20468;-69
2022/10/04 04:45:24;;;;;;;8.63;5.80;;;;;;;;;;4987382;28;20050;-69
2022/10/04 04:47:54;;;;;;;21.30;9.20;;;;;;;;;;4986390;28;20038;-69
2022/10/04 04:50:22;;;;;;;47.33;17.38;;;;;;;;;;4984418;28;20480;-69
2022/10/04 04:52:56;;;;;;;56.08;19.70;;;;;;;;;;5005241;28;20631;-69
2022/10/04 04:55:23;;;;;;;43.33;16.02;;;;;;;;;;4989469;28;20467;-69
2022/10/04 04:57:50;;;;;;;32.50;12.52;;;;;;;;;;4988410;28;20105;-69
2022/10/04 05:00:26;;;;;;;22.33;7.97;;;;;;;;;;4984504;28;20045;-69
2022/10/04 05:02:55;;;;;;;12.95;6.68;;;;;;;;;;4988305;28;20030;-69
2022/10/04 05:05:20;;;;;;;;;;;;;;;;;;4988085;28;20030;-67
2022/10/04 05:07:46;;;;;;;12.00;6.17;;;;;;;;;;4991980;28;19922;-68
2022/10/04 05:10:21;;;;;;;17.58;6.72;;;;;;;;;;4990995;28;20034;-69
2022/10/04 05:12:47;;;;;;;9.32;5.85;;;;;;;;;;4992752;28;20085;-69
2022/10/04 05:15:12;;;;;;;16.88;6.47;;;;;;;;;;4992164;28;20046;-69
2022/10/04 05:17:37;;;;;;;12.48;6.72;;;;;;;;;;4991333;28;20125;-69
2022/10/04 05:20:03;;;;;;;13.65;6.95;;;;;;;;;;4990220;28;20062;-68
2022/10/04 05:22:30;;;;;;;14.43;6.65;;;;;;;;;;4991628;28;20026;-68
2022/10/04 05:24:59;;;;;;;11.88;6.22;;;;;;;;;;4993936;28;20026;-68
2022/10/04 05:27:24;;;;;;;17.35;5.72;;;;;;;;;;4991458;28;20073;-68
2022/10/04 05:30:07;;;;;;;13.33;5.57;;;;;;;;;;4993569;28;20038;-67
2022/10/04 05:32:40;;;;;;;13.63;5.75;;;;;;;;;;4993407;28;20294;-68
2022/10/04 05:35:15;;;;;;;14.93;6.00;;;;;;;;;;4993869;28;20437;-68
2022/10/04 05:37:59;;;;;;;18.52;6.10;;;;;;;;;;4994639;28;20076;-69
2022/10/04 05:40:24;;;;;;;13.57;5.97;;;;;;;;;;4993462;28;20407;-68
2022/10/04 05:42:50;;;;;;;17.60;6.63;;;;;;;;;;4992423;28;20034;-68
2022/10/04 05:45:29;;;;;;;21.38;7.10;;;;;;;;;;4988920;28;20027;-70
2022/10/04 05:47:56;;;;;;;18.95;6.57;;;;;;;;;;4993040;28;20030;-68
2022/10/04 05:50:33;;;;;;;10.95;5.97;;;;;;;;;;4992731;28;20045;-68
2022/10/04 05:53:07;;;;;;;11.00;6.45;;;;;;;;;;5004762;28;20032;-68
2022/10/04 05:55:52;;;;;;;14.75;5.93;;;;;;;;;;4994975;28;20126;-70
2022/10/04 05:58:33;;;;;;;10.13;5.43;;;;;;;;;;4990993;28;20077;-68
2022/10/04 06:01:17;;;;;;;14.68;6.13;;;;;;;;;;4993412;28;20032;-70
2022/10/04 06:04:00;;;;;;;9.98;5.43;;;;;;;;;;4991139;28;20049;-70
2022/10/04 06:06:32;;;;;;;11.20;5.50;;;;;;;;;;4991531;28;20038;-70
2022/10/04 06:09:20;;;;;;;14.05;5.97;;;;;;;;;;4990173;28;20042;-69
2022/10/04 06:11:55;;;;;;;20.40;5.25;;;;;;;;;;4992091;28;20027;-69
2022/10/04 06:14:38;;;;;;;12.55;5.32;;;;;;;;;;4990644;28;20050;-69
2022/10/04 06:17:09;;;;;;;13.45;5.38;;;;;;;;;;4992501;28;20031;-69
2022/10/04 06:19:54;;;;;;;14.50;5.22;;;;;;;;;;4991477;28;20062;-69
2022/10/04 06:22:20;;;;;;;11.02;4.22;;;;;;;;;;4993108;28;20038;-69
2022/10/04 06:24:50;;;;;;;14.43;5.47;;;;;;;;;;4993154;28;20029;-69
2022/10/04 06:27:18;;;;;;;8.73;4.70;;;;;;;;;;4993145;28;20030;-68
2022/10/04 06:30:04;;;;;;;15.05;5.25;;;;;;;;;;4992167;28;20022;-70
2022/10/04 06:32:33;;;;;;;13.77;6.35;;;;;;;;;;4991099;28;20057;-70
2022/10/04 06:35:18;;;;;;;18.45;6.25;;;;;;;;;;4992792;28;20043;-70
2022/10/04 06:38:00;;;;;;;11.07;5.35;;;;;;;;;;4991485;28;20109;-69
2022/10/04 06:40:34;;;;;;;16.60;5.15;;;;;;;;;;4989723;28;20042;-68
2022/10/04 06:43:17;;;;;;;16.02;5.90;;;;;;;;;;4992444;28;20077;-69
2022/10/04 06:45:48;;;;;;;13.45;5.85;;;;;;;;;;4993181;28;20030;-68
2022/10/04 06:48:13;;;;;;;9.55;5.80;;;;;;;;;;5007686;28;20034;-69
2022/10/04 06:50:45;;;;;;;14.17;6.20;;;;;;;;;;4990029;28;20607;-69
2022/10/04 06:53:29;;;;;;;18.98;6.63;;;;;;;;;;4993587;28;20053;-68
2022/10/04 06:55:55;;;;;;;11.82;5.00;;;;;;;;;;5006034;28;20113;-69
2022/10/04 06:58:40;;;;;;;10.43;5.83;;;;;;;;;;4991499;28;20432;-69
2022/10/04 07:01:11;;;;;;;10.70;5.82;;;;;;;;;;4979014;28;20288;-69
2022/10/04 07:03:55;;;;;;;16.98;9.18;;;;;;;;;;4987550;28;20038;-68
2022/10/04 07:06:24;;;;;;;21.75;11.90;;;;;;;;;;4989990;28;20434;-69
2022/10/04 07:08:54;;;;;;;29.20;17.38;;;;;;;10.04;nan;101051.50;4992503;28;20026;-69
2022/10/04 07:11:26;;;;;;;36.42;23.20;;;;;;;;;;4989444;28;20034;-69
2022/10/04 07:14:00;;;;;;;20.42;12.65;;;;;;;;;;4989922;28;20052;-68
2022/10/04 07:16:38;;;;;;;17.65;6.85;;;;;;;;;;4987808;28;20334;-68
2022/10/04 07:19:18;;;;;;;12.30;5.72;;;;;;;10.37;nan;101080.41;4990824;28;20038;-69
2022/10/04 07:21:59;;;;;;;11.25;5.30;;;;;;;;;;4988859;28;20057;-70
2022/10/04 07:24:43;;;;;;;13.23;6.28;;;;;;;;;;4990908;28;20036;-68
2022/10/04 07:27:14;;;;;;;12.80;5.20;;;;;;;;;;4989973;28;20026;-68
2022/10/04 07:29:43;;;;;;;10.25;4.80;;;;;;;;;;4990557;28;20037;-68
2022/10/04 07:32:13;;;;;;;7.78;4.78;;;;;;;;;;5004544;28;20026;-68
2022/10/04 07:34:45;;;;;;;9.45;4.57;;;;;;;;;;4990978;28;20076;-67
2022/10/04 07:37:12;;;;;;;9.95;4.50;;;;;;;;;;4987770;28;20038;-69
2022/10/04 07:39:53;;;;;;;14.70;4.60;;;;;;;;;;4990070;28;20058;-68
2022/10/04 07:42:39;;;;;;;7.18;4.13;;;;;;;;;;4989150;28;20038;-69
2022/10/04 07:45:19;;;;;;;8.68;4.05;;;;;;;;;;4985545;28;20053;-69
2022/10/04 07:47:45;;;;;;;11.77;4.32;;;;;;;11.29;nan;101107.38;4990995;28;20030;-69
2022/10/04 07:50:22;;;;;;;8.27;4.45;;;;;;;;;;4990686;28;20038;-68
2022/10/04 07:52:58;;;;;;;9.45;4.25;;;;;;;;;;4989873;28;20030;-68
2022/10/04 07:55:36;;;;;;;9.35;4.55;;;;;;;;;;4991000;28;20029;-68
2022/10/04 07:58:20;;;;;;;8.40;3.72;;;;;;;;;;4989894;28;20495;-69
2022/10/04 08:00:48;;;;;;;11.15;4.07;;;;;;;;;;4990084;28;20034;-68
2022/10/04 08:03:25;;;;;;;7.25;3.70;;;;;;;;;;4990060;28;20101;-70
2022/10/04 08:05:58;;;;;;;10.43;4.63;;;;;;;;;;4991347;28;20034;-69
2022/10/04 08:08:23;;;;;;;18.55;8.15;;;;;;;;;;4987149;28;20034;-68
2022/10/04 08:11:04;;;;;;;25.77;11.77;;;;;;;;;;4987133;28;20085;-68
2022/10/04 08:13:37;;;;;;;32.47;14.77;;;;;;;;;;5004554;28;20056;-68
2022/10/04 08:16:09;;;;;;;28.40;13.60;;;;;;;;;;4992111;28;20034;-69
2022/10/04 08:18:51;;;;;;;16.40;5.93;;;;;;;;;;4988028;28;20037;-68
2022/10/04 08:21:22;;;;;;;11.55;4.25;;;;;;;;;;5003318;28;20085;-68
2022/10/04 08:23:54;;;;;;;9.35;4.18;;;;;;;;;;4990720;28;20508;-69
2022/10/04 08:26:19;;;;;;;9.95;3.90;;;;;;;;;;4989657;28;20170;-66
2022/10/04 08:31:56;;;;;;;9.10;3.92;;;;;;;;;;4987827;28;20033;-68
2022/10/04 08:34:42;;;;;;;9.10;4.35;;;;;;;;;;4989828;28;20069;-68
2022/10/04 08:37:08;;;;;;;12.20;4.55;;;;;;;;;;4987631;28;20026;-67
2022/10/04 08:39:33;;;;;;;7.40;3.45;;;;;;;;;;4989028;28;20050;-68
2022/10/04 08:42:05;;;;;;;9.50;3.00;;;;;;;;;;4988150;28;20081;-68
2022/10/04 08:44:49;;;;;;;4.57;3.17;;;;;;;;;;4985215;28;20034;-68
2022/10/04 08:47:29;;;;;;;9.15;2.97;;;;;;;;;;4986381;28;20104;-67
2022/10/04 08:50:13;;;;;;;8.95;4.50;;;;;;;;;;4988660;28;20037;-71
2022/10/04 08:53:00;;;;;;;9.35;3.60;;;;;;;;;;4988562;28;20030;-67
2022/10/04 08:55:33;;;;;;;6.75;3.70;;;;;;;;;;4985351;28;20490;-68
2022/10/04 08:58:04;;;;;;;8.40;3.75;;;;;;;;;;4989226;28;20038;-68
2022/10/04 09:00:36;;;;;;;5.65;2.90;;;;;;;;;;4989656;28;20022;-70
2022/10/04 09:03:04;;;;;;;11.00;3.35;;;;;;;;;;4987098;28;20026;-70
2022/10/04 09:05:48;;;;;;;4.88;2.58;;;;;;;;;;4988717;28;20488;-69
2022/10/04 09:08:27;;;;;;;8.65;2.80;;;;;;;;;;4987640;28;20034;-69
2022/10/04 09:11:11;;;;;;;11.40;4.30;;;;;;;;;;4985641;28;20146;-69
2022/10/04 09:13:47;;;;;;;7.90;3.28;;;;;;;;;;4985553;28;20054;-69
2022/10/04 09:16:12;;;;;;;6.75;4.07;;;;;;;;;;4990278;28;20042;-69
2022/10/04 09:18:50;;;;;;;8.83;4.00;;;;;;;;;;4985703;28;20066;-69
2022/10/04 09:21:44;;;;;;;6.80;3.40;;;;;;;;;;4989628;28;20030;-69
2022/10/04 09:24:25;;;;;;;4.97;3.05;;;;;;;;;;4891107;29;20045;-69
2022/10/04 09:27:09;;;;;;;7.82;3.15;;;;;;;;;;4891080;29;21104;-69
2022/10/04 09:29:34;;;;;;;6.20;3.00;;;;;;;;;;4888203;29;20036;-69
2022/10/04 09:31:59;;;;;;;6.17;3.23;;;;;;;;;;4891866;29;20033;-69
2022/10/04 09:34:30;;;;;;;6.23;3.27;;;;;;;;;;4890083;29;20087;-68
2022/10/04 09:37:08;;;;;;;5.63;2.78;;;;;;;;;;4891706;29;20024;-68
2022/10/04 09:39:33;;;;;;;9.13;3.88;;;;;;;;;;4890259;29;20120;-68
2022/10/04 09:42:04;;;;;;;6.03;2.70;;;;;;;;;;4890898;29;21123;-68
2022/10/04 09:44:45;;;;;;;8.57;3.47;;;;;;;;;;4890583;29;20127;-68
2022/10/04 09:47:30;;;;;;;15.57;5.10;;;;;;;;;;4887621;29;20127;-68
2022/10/04 09:50:13;;;;;;;6.45;3.13;;;;;;;;;;4890401;29;20036;-68
2022/10/04 09:52:42;;;;;;;6.20;2.80;;;;;;;;;;4890239;29;20039;-67
2022/10/04 09:55:22;;;;;;;7.47;2.80;;;;;;;;;;4887221;29;20036;-68
2022/10/04 09:57:53;;;;;;;5.63;2.72;;;;;;;;;;4895292;29;20032;-67
2022/10/04 10:00:24;;;;;;;6.47;3.75;;;;;;;;;;4930566;28;20046;-68
2022/10/04 10:02:58;;;;;;;5.75;2.78;;;;;;;;;;4988471;28;20030;-69
2022/10/04 10:05:24;;;;;;;7.28;2.80;;;;;;;;;;4989726;28;20029;-68
2022/10/04 10:08:08;;;;;;;4.57;2.67;;;;;;;;;;4992720;28;20543;-68
2022/10/04 10:13:38;;;;;;;7.03;2.75;;;;;;;;;;4988410;28;20084;-70
2022/10/04 10:16:04;;;;;;;7.20;3.00;;;;;;;;;;4989405;28;20079;-70
2022/10/04 10:18:41;;;;;;;6.10;2.57;;;;;;;;;;4991493;28;20034;-70
2022/10/04 10:21:06;;;;;;;6.47;2.88;;;;;;;;;;4991845;28;20362;-70
2022/10/04 10:23:38;;;;;;;7.87;2.90;;;;;;;;;;4992900;28;20105;-69
2022/10/04 10:26:23;;;;;;;9.20;3.72;;;;;;;;;;4991167;28;20117;-69
2022/10/04 10:29:12;;;;;;;9.77;3.17;;;;;;;;;;4991301;28;20034;-69
2022/10/04 10:31:58;;;;;;;5.43;3.10;;;;;;;;;;4990703;28;20034;-69
2022/10/04 10:34:23;;;;;;;9.98;2.38;;;;;;;;;;4991606;28;20135;-70
2022/10/04 10:36:52;;;;;;;6.47;2.85;;;;;;;;;;4993275;28;20117;-69
2022/10/04 10:39:40;;;;;;;6.50;2.50;;;;;;;;;;4991436;28;20084;-70
2022/10/04 10:42:06;;;;;;;4.43;2.30;;;;;;;;;;4969133;28;20046;-68
2022/10/04 10:44:41;;;;;;;20.08;9.00;;;;;;;;;;4971167;28;20045;-68
2022/10/04 10:47:29;;;;;;;8.18;3.95;;;;;;;;;;4954246;28;20034;-69
2022/10/04 10:50:19;;;;;;;5.20;2.40;;;;;;;;;;4970980;28;20122;-68
2022/10/04 10:52:45;;;;;;;7.63;2.90;;;;;;;;;;4955233;28;20118;-68
2022/10/04 10:55:22;;;;;;;7.13;2.50;;;;;;;;;;4970206;28;20109;-69
2022/10/04 10:58:10;;;;;;;4.65;2.53;;;;;;;;;;4966746;28;20038;-68
2022/10/04 11:00:51;;;;;;;7.75;2.38;;;;;;;;;;4969751;28;20057;-69
2022/10/04 11:03:39;;;;;;;8.70;2.97;;;;;;;;;;4971094;28;20026;-68
2022/10/04 11:06:07;;;;;;;6.75;3.10;;;;;;;;;;4930599;29;20044;-70
2022/10/04 11:08:35;;;;;;;5.43;2.83;;;;;;;;;;4931168;29;20126;-68
2022/10/04 11:11:15;;;;;;;6.65;2.95;;;;;;;;;;4931585;29;20044;-68
2022/10/04 11:13:59;;;;;;;4.57;2.70;;;;;;;;;;4931648;29;20056;-69
2022/10/04 11:16:33;;;;;;;5.22;2.85;;;;;;;;;;4930316;29;20056;-68
2022/10/04 11:19:33;;;;;;;5.95;2.60;;;;;;;;;;4937895;29;20035;-69
2022/10/04 11:22:05;;;;;;;6.32;3.05;;;;;;;;;;4911177;29;20066;-69
2022/10/04 11:24:44;;;;;;;5.50;2.60;;;;;;;;;;4947339;29;20133;-69
2022/10/04 11:27:18;;;;;;;13.30;2.97;;;;;;;;;;4946682;29;20027;-69
2022/10/04 11:29:47;;;;;;;7.15;2.85;;;;;;;;;;4944728;29;20039;-68
2022/10/04 11:32:16;;;;;;;7.57;2.92;;;;;;;;;;4943925;29;20027;-68
2022/10/04 11:35:03;;;;;;;6.28;2.65;;;;;;;;;;4944621;29;20031;-70
2022/10/04 11:37:34;;;;;;;6.15;2.60;;;;;;;;;;4947461;29;20482;-70
2022/10/04 11:40:17;;;;;;;5.90;2.78;;;;;;;;;;4944883;29;20495;-68
2022/10/04 11:43:23;;;;;;;5.97;2.60;;;;;;;14.84;nan;101100.72;4961115;28;20038;-70
2022/10/04 11:46:07;;;;;;;4.35;3.10;;;;;;;;;;4985195;28;20030;-67
2022/10/04 11:48:52;;;;;;;6.35;2.60;;;;;;;;;;4988673;28;20559;-70
2022/10/04 11:51:20;;;;;;;17.85;2.90;;;;;;;;;;4987965;28;20412;-70
2022/10/04 11:53:51;;;;;;;4.53;3.27;;;;;;;;;;4989443;28;20472;-70
2022/10/04 11:56:20;;;;;;;8.70;3.10;;;;;;;;;;4991423;28;20029;-70
2022/10/04 11:59:03;;;;;;;4.68;2.40;;;;;;;;;;4987234;28;20021;-69
2022/10/04 12:01:29;;;;;;;5.88;2.60;;;;;;;;;;5003245;28;20026;-70
2022/10/04 12:04:04;;;;;;;5.35;2.22;;;;;;;;;;4990732;28;20037;-70
2022/10/04 12:06:38;;;;;;;7.00;2.45;;;;;;;;;;4991198;28;20479;-70
2022/10/04 12:09:24;;;;;;;6.78;2.60;;;;;;;;;;5001329;28;20153;-70
2022/10/04 12:15:16;;;;;;;7.00;3.10;;;;;;;;;;4985960;28;20045;-69
2022/10/04 12:18:05;;;;;;;6.20;3.00;;;;;;;;;;4990605;28;20053;-70
2022/10/04 12:20:52;;;;;;;5.35;3.60;;;;;;;;;;4984998;28;20042;-70
2022/10/04 12:23:36;;;;;;;5.43;3.00;;;;;;;;;;4990970;28;20015;-70
2022/10/04 12:26:06;;;;;;;7.30;3.03;;;;;;;;;;4991589;28;20484;-70
2022/10/04 12:28:31;;;;;;;8.85;3.45;;;;;;;;;;4990631;28;20033;-70
2022/10/04 12:31:05;;;;;;;7.07;3.30;;;;;;;;;;4990262;28;20030;-70
2022/10/04 12:33:50;;;;;;;6.25;3.42;;;;;;;;;;4989342;28;20033;-70
2022/10/04 12:36:29;;;;;;;9.02;3.30;;;;;;;;;;4990007;28;20030;-70
2022/10/04 12:38:54;;;;;;;8.48;3.28;;;;;;;;;;4989052;28;20034;-70
2022/10/04 12:41:27;;;;;;;4.47;2.67;;;;;;;;;;4990674;28;20381;-70
2022/10/04 12:44:06;;;;;;;4.97;2.80;;;;;;;;;;4987257;28;20034;-70
2022/10/04 12:46:32;;;;;;;5.95;3.67;;;;;;;;;;4987848;28;20034;-70
2022/10/04 12:49:03;;;;;;;9.93;3.75;;;;;;;;;;4988393;28;20077;-70
2022/10/04 12:51:47;;;;;;;9.45;3.25;;;;;;;;;;4989414;28;20037;-70
2022/10/04 12:54:19;;;;;;;5.35;2.50;;;;;;;;;;4985653;28;20068;-70
2022/10/04 12:57:05;;;;;;;7.75;2.45;;;;;;;;;;4990498;28;20026;-70
2022/10/04 12:59:45;;;;;;;3.75;1.88;;;;;;;;;;4988603;28;20109;-70
2022/10/04 13:02:29;;;;;;;5.60;2.05;;;;;;;;;;4982881;28;20440;-70
2022/10/04 13:05:00;;;;;;;5.20;2.28;;;;;;;;;;5005282;28;20034;-70
2022/10/04 13:07:35;;;;;;;5.68;2.20;;;;;;;;;;5004470;28;20374;-69
2022/10/04 13:10:13;;;;;;;5.45;2.47;;;;;;;;;;4988093;28;20181;-70
2022/10/04 13:12:44;;;;;;;6.63;2.30;;;;;;;;;;4989449;28;20443;-69
2022/10/04 13:15:28;;;;;;;5.07;2.15;;;;;;;;;;4988202;28;20050;-69
2022/10/04 13:18:05;;;;;;;3.17;2.03;;;;;;;;;;4989749;28;20026;-70
2022/10/04 13:20:39;;;;;;;4.18;2.15;;;;;;;;;;4988214;28;20026;-70
2022/10/04 13:23:13;;;;;;;5.63;2.30;;;;;;;;;;4986497;28;20118;-70
2022/10/04 13:25:58;;;;;;;5.28;2.33;;;;;;;;;;4986470;28;20054;-69
2022/10/04 13:28:23;;;;;;;4.43;2.22;;;;;;;;;;4992998;28;20499;-70
2022/10/04 13:30:52;;;;;;;6.97;2.10;;;;;;;;;;4993229;28;20034;-69
2022/10/04 13:33:17;;;;;;;;;;;;;;;;;;4992342;28;20034;-69
2022/10/04 13:35:51;;;;;;;5.67;2.00;;;;;;;;;;4994004;28;19976;-70
2022/10/04 13:38:35;;;;;;;6.65;2.45;;;;;;;;;;4993625;28;20034;-70
2022/10/04 13:41:03;;;;;;;182.27;46.25;;;;;;;;;;4993091;28;20022;-70
2022/10/04 13:43:48;;;;;;;13.15;5.18;;;;;;;;;;4991296;28;20101;-70
2022/10/04 13:46:18;;;;;;;8.98;3.33;;;;;;;;;;4987847;28;20022;-70
2022/10/04 13:48:44;;;;;;;7.68;3.22;;;;;;;;;;4991516;28;20582;-69
2022/10/04 13:51:18;;;;;;;8.40;3.03;;;;;;;;;;4994517;28;20109;-70
2022/10/04 13:56:36;;;;;;;8.00;3.17;;;;;;;;;;4988467;28;20507;-70
2022/10/04 13:59:20;;;;;;;6.00;3.10;;;;;;;;;;5001695;28;20534;-70
2022/10/04 14:01:48;;;;;;;7.57;2.95;;;;;;;;;;4986378;28;20451;-67
2022/10/04 14:04:32;;;;;;;5.85;2.90;;;;;;;;;;4992067;28;20113;-67
2022/10/04 14:07:07;;;;;;;10.00;2.83;;;;;;;;;;4991505;28;20030;-70
2022/10/04 14:09:49;;;;;;;8.15;2.30;;;;;;;;;;4991645;28;20105;-70
2022/10/04 14:12:14;;;;;;;6.20;2.30;;;;;;;;;;5000643;28;20899;-70
2022/10/04 14:14:43;;;;;;;6.93;3.73;;;;;;;;;;4989329;28;20137;-71
2022/10/04 14:17:11;;;;;;;10.68;6.03;;;;;;;;;;4989927;28;20379;-69
2022/10/04 14:19:58;;;;;;;9.60;5.20;;;;;;;;;;4993337;28;20383;-71
2022/10/04 14:22:26;;;;;;;5.72;3.50;;;;;;;;;;4989470;28;20033;-70
2022/10/04 14:25:06;;;;;;;9.80;3.30;;;;;;;;;;4992462;28;20038;-70
2022/10/04 14:27:42;;;;;;;6.00;3.33;;;;;;;;;;4992665;28;20026;-70
2022/10/04 14:30:11;;;;;;;8.18;3.45;;;;;;;;;;4991755;28;20038;-70
2022/10/04 14:32:55;;;;;;;6.50;3.60;;;;;;;;;;4993373;28;20095;-70
2022/10/04 14:35:20;;;;;;;7.70;3.50;;;;;;;;;;4988239;28;20337;-70
2022/10/04 14:38:04;;;;;;;9.73;4.20;;;;;;;;;;4992990;28;20452;-70
2022/10/04 14:40:39;;;;;;;6.05;3.15;;;;;;;;;;4991699;28;20044;-70
2022/10/04 14:43:22;;;;;;;7.80;3.63;;;;;;;;;;4992372;28;20584;-70
2022/10/04 14:46:06;;;;;;;7.60;3.50;;;;;;;;;;4990189;28;20053;-70
2022/10/04 14:48:50;;;;;;;6.93;3.30;;;;;;;;;;4990979;28;20030;-71
2022/10/04 14:51:34;;;;;;;5.10;3.10;;;;;;;;;;5004763;28;20513;-71
2022/10/04 14:54:02;;;;;;;3.85;2.58;;;;;;;;;;4992213;28;20038;-71
2022/10/04 14:56:27;;;;;;;4.97;2.60;;;;;;;;;;4989664;28;20041;-72
2022/10/04 14:58:53;;;;;;;6.23;3.10;;;;;;;;;;4991348;28;20288;-69
2022/10/04 15:01:19;;;;;;;5.97;3.20;;;;;;;;;;4990280;28;20034;-69
2022/10/04 15:03:50;;;;;;;4.40;3.10;;;;;;;;;;4991434;28;20045;-67
2022/10/04 15:06:28;;;;;;;5.07;2.90;;;;;;;;;;4988922;28;20022;-71
2022/10/04 15:08:59;;;;;;;5.53;3.28;;;;;;;;;;5006487;28;20030;-70
2022/10/04 15:11:52;;;;;;;5.93;3.42;;;;;;;;;;4990074;28;20038;-72
2022/10/04 15:14:37;;;;;;;7.55;3.83;;;;;;;;;;5005386;28;20051;-69
2022/10/04 15:17:09;;;;;;;9.05;4.10;;;;;;;;;;4990452;28;20488;-69
2022/10/04 15:19:48;;;;;;;6.50;4.03;;;;;;;;;;4993895;28;20043;-70
2022/10/04 15:22:20;;;;;;;6.80;4.20;;;;;;;;;;4990613;28;20040;-70
2022/10/04 15:24:45;;;;;;;10.02;4.32;;;;;;;;;;4989306;28;20061;-70
2022/10/04 15:27:29;;;;;;;9.55;4.60;;;;;;;;;;4992140;28;20073;-71